Time;durP1;ratioP1;P1;durP2;ratioP2;P2;SDS_P1;SDS_P2;PMS_P1;PMS_P2;Temp;Humidity;BMP_temperature;BMP_pressure;BME280_temperature;BME280_humidity;BME280_pressure;Samples;Min_cycle;Max_cycle;Signal;HPM_P1;HPM_P2
2022/08/06 00:02:20;217709.00;0.73;376.40;0.00;0.00;0.62;;;;;24.30;1.00;;;;;;2276563;61;1184;-88
2022/08/06 00:04:50;108628.00;0.36;188.46;0.00;0.00;0.62;;;;;24.40;1.00;;;;;;2277147;61;1354;-87
2022/08/06 00:07:17;530990.00;1.77;915.20;0.00;0.00;0.62;;;;;24.60;1.00;;;;;;2276669;61;948;-84
2022/08/06 00:09:44;271982.00;0.91;469.75;0.00;0.00;0.62;;;;;24.50;1.00;;;;;;2275650;61;1997;-85
2022/08/06 00:12:13;283520.00;0.95;489.59;0.00;0.00;0.62;;;;;24.20;1.00;;;;;;2275255;61;1764;-85
2022/08/06 00:14:40;98222.00;0.33;170.50;0.00;0.00;0.62;;;;;24.20;1.00;;;;;;2274808;61;1340;-85
2022/08/06 00:17:07;130125.00;0.43;225.54;0.00;0.00;0.62;;;;;24.10;1.00;;;;;;2275281;61;1604;-84
2022/08/06 00:19:34;61038.00;0.20;106.27;0.00;0.00;0.62;;;;;23.90;1.00;;;;;;2274016;61;1574;-84
2022/08/06 00:22:01;0.00;0.00;0.62;0.00;0.00;0.62;;;;;23.80;1.00;;;;;;2274500;61;2167;-85
2022/08/06 00:24:28;239376.00;0.80;413.68;0.00;0.00;0.62;;;;;23.70;1.00;;;;;;2273552;61;1262;-85
2022/08/06 00:26:55;75036.00;0.25;130.46;0.00;0.00;0.62;;;;;23.90;1.00;;;;;;2274404;61;1121;-85
2022/08/06 00:29:23;120495.00;0.40;208.94;0.00;0.00;0.62;;;;;24.30;1.00;;;;;;2274594;61;2004;-86
2022/08/06 00:31:50;0.00;0.00;0.62;0.00;0.00;0.62;;;;;24.50;1.00;;;;;;2276419;61;1135;-86
2022/08/06 00:34:17;0.00;0.00;0.62;0.00;0.00;0.62;;;;;24.60;1.00;;;;;;2275114;61;1387;-85
2022/08/06 00:36:44;148321.00;0.49;256.91;0.00;0.00;0.62;;;;;24.80;1.00;;;;;;2274475;61;1163;-86
2022/08/06 00:39:11;343219.00;1.14;592.21;100762.00;0.34;174.89;;;;;24.60;1.00;;;;;;2274527;61;1220;-85
2022/08/06 00:41:38;228659.00;0.76;395.24;0.00;0.00;0.62;;;;;24.50;1.00;;;;;;2275079;61;1619;-86
2022/08/06 00:44:06;0.00;0.00;0.62;0.00;0.00;0.62;;;;;24.30;1.00;;;;;;2275110;61;1366;-85
2022/08/06 00:46:34;134991.00;0.45;233.94;0.00;0.00;0.62;;;;;23.60;1.00;;;;;;2276414;61;1164;-87
2022/08/06 00:49:01;38976.00;0.13;68.12;0.00;0.00;0.62;;;;;22.90;1.00;;;;;;2276113;61;2091;-83
2022/08/06 00:51:28;34320.00;0.11;60.06;0.00;0.00;0.62;;;;;22.80;1.00;;;;;;2276832;61;1156;-86
2022/08/06 00:53:55;30490.00;0.10;53.43;0.00;0.00;0.62;;;;;22.80;1.00;;;;;;2278938;39;3582;-86
2022/08/06 00:56:22;207195.00;0.69;358.31;0.00;0.00;0.62;;;;;22.70;1.00;;;;;;2272842;61;1047;-87
2022/08/06 00:58:49;115320.00;0.38;200.01;0.00;0.00;0.62;;;;;22.50;1.00;;;;;;2272619;61;986;-89
2022/08/06 01:01:16;0.00;0.00;0.62;0.00;0.00;0.62;;;;;22.30;1.00;;;;;;2272760;61;1026;-88
2022/08/06 01:03:45;18275.00;0.06;32.28;0.00;0.00;0.62;;;;;22.30;1.00;;;;;;2272601;61;1269;-88
2022/08/06 01:06:12;74581.00;0.25;129.68;0.00;0.00;0.62;;;;;22.30;1.00;;;;;;2272702;61;1046;-88
2022/08/06 01:08:39;185577.00;0.62;321.09;0.00;0.00;0.62;;;;;22.50;1.00;;;;;;2272689;61;1923;-87
2022/08/06 01:11:06;108366.00;0.36;188.01;0.00;0.00;0.62;;;;;22.50;1.00;;;;;;2272762;61;1635;-88
2022/08/06 01:13:33;157908.00;0.53;273.43;0.00;0.00;0.62;;;;;22.10;1.00;;;;;;2272233;61;1387;-84
2022/08/06 01:16:10;0.00;0.00;0.62;0.00;0.00;0.62;;;;;21.70;1.00;;;;;;2270209;61;1688;-85
2022/08/06 01:18:51;0.00;0.00;0.62;0.00;0.00;0.62;;;;;21.70;1.00;;;;;;2270105;61;1272;-84
2022/08/06 01:21:33;118390.00;0.39;205.31;51493.00;0.17;89.77;;;;;21.70;1.00;;;;;;2269689;61;1215;-84
2022/08/06 01:24:24;0.00;0.00;0.62;0.00;0.00;0.62;;;;;21.30;1.00;;;;;;2269611;61;1371;-82
2022/08/06 01:26:55;0.00;0.00;0.62;0.00;0.00;0.62;;;;;21.50;1.00;;;;;;2269896;61;1108;-84
2022/08/06 01:29:28;48610.00;0.16;84.78;0.00;0.00;0.62;;;;;21.80;1.00;;;;;;2269134;61;1916;-84
2022/08/06 01:32:04;92230.00;0.31;160.16;0.00;0.00;0.62;;;;;21.90;1.00;;;;;;2269154;61;874;-83
2022/08/06 01:34:36;0.00;0.00;0.62;0.00;0.00;0.62;;;;;21.80;1.00;;;;;;2269088;61;1489;-84
2022/08/06 01:37:12;248058.00;0.83;428.61;114028.00;0.38;197.78;;;;;21.70;1.00;;;;;;2269083;61;1178;-85
2022/08/06 01:39:43;57090.00;0.19;99.45;0.00;0.00;0.62;;;;;21.80;1.00;;;;;;2269120;61;1288;-84
2022/08/06 01:42:11;0.00;0.00;0.62;0.00;0.00;0.62;;;;;21.90;1.00;;;;;;2270248;61;1160;-84
2022/08/06 01:44:43;0.00;0.00;0.62;0.00;0.00;0.62;;;;;21.90;1.00;;;;;;2269811;61;1400;-85
2022/08/06 01:47:13;70759.00;0.24;123.07;0.00;0.00;0.62;;;;;21.80;1.00;;;;;;2269757;61;1199;-87
2022/08/06 01:49:44;0.00;0.00;0.62;0.00;0.00;0.62;;;;;21.60;1.00;;;;;;2272565;61;1915;-82
2022/08/06 01:52:13;0.00;0.00;0.62;0.00;0.00;0.62;;;;;21.70;1.00;;;;;;2271379;61;1079;-84
2022/08/06 01:54:45;147881.00;0.49;256.16;0.00;0.00;0.62;;;;;21.70;1.00;;;;;;2268645;61;1578;-84
2022/08/06 01:57:16;55451.00;0.18;96.61;0.00;0.00;0.62;;;;;21.90;1.00;;;;;;2269034;61;1114;-84
2022/08/06 01:59:48;12622.00;0.04;22.49;0.00;0.00;0.62;;;;;21.90;1.00;;;;;;2269079;61;1136;-84
2022/08/06 02:02:20;0.00;0.00;0.62;0.00;0.00;0.62;;;;;21.90;1.00;;;;;;2269073;61;1113;-84
2022/08/06 02:04:51;0.00;0.00;0.62;0.00;0.00;0.62;;;;;22.10;1.00;;;;;;2268900;61;1391;-84
2022/08/06 02:07:23;32381.00;0.11;56.70;0.00;0.00;0.62;;;;;22.20;1.00;;;;;;2271295;61;1117;-85
2022/08/06 02:09:53;15548.00;0.05;27.56;0.00;0.00;0.62;;;;;22.30;1.00;;;;;;2272520;61;1914;-86
2022/08/06 02:12:24;0.00;0.00;0.62;0.00;0.00;0.62;;;;;22.40;1.00;;;;;;2268870;61;1078;-84
2022/08/06 02:14:56;0.00;0.00;0.62;0.00;0.00;0.62;;;;;22.60;1.00;;;;;;2268400;61;1319;-85
2022/08/06 02:17:28;0.00;0.00;0.62;0.00;0.00;0.62;;;;;22.70;1.00;;;;;;2267998;61;1190;-84
2022/08/06 02:19:59;77404.00;0.26;134.55;0.00;0.00;0.62;;;;;22.80;1.00;;;;;;2267816;61;1716;-84
2022/08/06 02:22:28;45440.00;0.15;79.30;0.00;0.00;0.62;;;;;23.00;1.00;;;;;;2267630;61;1588;-85
2022/08/06 02:25:01;0.00;0.00;0.62;0.00;0.00;0.62;;;;;23.10;1.00;;;;;;2267448;61;1310;-84
2022/08/06 02:27:29;14345.00;0.05;25.48;0.00;0.00;0.62;;;;;22.60;1.00;;;;;;2267884;61;1149;-83
2022/08/06 02:30:01;0.00;0.00;0.62;0.00;0.00;0.62;;;;;22.10;1.00;;;;;;2268514;61;2006;-83
2022/08/06 02:32:28;0.00;0.00;0.62;0.00;0.00;0.62;;;;;22.00;1.00;;;;;;2268389;61;1236;-85
2022/08/06 02:34:56;0.00;0.00;0.62;0.00;0.00;0.62;;;;;22.10;1.00;;;;;;2267999;61;1351;-85
2022/08/06 02:37:30;19890.00;0.07;35.08;0.00;0.00;0.62;;;;;22.40;1.00;;;;;;2268080;61;1179;-84
2022/08/06 02:40:03;0.00;0.00;0.62;0.00;0.00;0.62;;;;;22.10;1.00;;;;;;2268665;61;1623;-84
2022/08/06 02:42:34;36169.00;0.12;63.26;0.00;0.00;0.62;;;;;21.70;1.00;;;;;;2272245;61;1127;-85
2022/08/06 02:45:06;0.00;0.00;0.62;0.00;0.00;0.62;;;;;21.50;1.00;;;;;;2272304;61;1381;-84
2022/08/06 02:47:39;146406.00;0.49;253.61;11608.00;0.04;20.73;;;;;21.50;1.00;;;;;;2269106;61;1119;-83
2022/08/06 02:50:09;87887.00;0.29;152.66;0.00;0.00;0.62;;;;;21.50;1.00;;;;;;2268361;61;1998;-83
2022/08/06 02:52:40;0.00;0.00;0.62;0.00;0.00;0.62;;;;;21.50;1.00;;;;;;2267991;61;1133;-84
2022/08/06 02:55:12;0.00;0.00;0.62;0.00;0.00;0.62;;;;;21.70;1.00;;;;;;2267585;61;1302;-84
2022/08/06 02:57:46;0.00;0.00;0.62;0.00;0.00;0.62;;;;;21.80;1.00;;;;;;2268849;61;1174;-84
2022/08/06 03:00:15;0.00;0.00;0.62;0.00;0.00;0.62;;;;;21.60;1.00;;;;;;2268806;61;1113;-85
2022/08/06 03:02:45;0.00;0.00;0.62;0.00;0.00;0.62;;;;;21.60;1.00;;;;;;2268191;61;1179;-85
2022/08/06 03:05:17;64141.00;0.21;111.63;0.00;0.00;0.62;;;;;21.70;1.00;;;;;;2268812;61;1359;-83
2022/08/06 03:07:47;0.00;0.00;0.62;0.00;0.00;0.62;;;;;21.80;1.00;;;;;;2268861;61;1105;-83
2022/08/06 03:10:18;46167.00;0.15;80.56;0.00;0.00;0.62;;;;;21.70;1.00;;;;;;2271472;61;1922;-85
2022/08/06 03:12:48;0.00;0.00;0.62;0.00;0.00;0.62;;;;;21.90;1.00;;;;;;2268330;61;1126;-84
2022/08/06 03:15:18;0.00;0.00;0.62;0.00;0.00;0.62;;;;;22.00;1.00;;;;;;2268892;61;1277;-84
2022/08/06 03:17:47;0.00;0.00;0.62;0.00;0.00;0.62;;;;;22.10;1.00;;;;;;2268339;61;1132;-84
2022/08/06 03:20:19;0.00;0.00;0.62;0.00;0.00;0.62;;;;;22.20;1.00;;;;;;2268102;61;1093;-82
2022/08/06 03:22:50;28101.00;0.09;49.30;0.00;0.00;0.62;;;;;21.60;1.00;;;;;;2267923;61;1179;-84
2022/08/06 03:25:19;0.00;0.00;0.62;0.00;0.00;0.62;;;;;21.20;1.00;;;;;;2268231;61;1410;-83
2022/08/06 03:27:47;0.00;0.00;0.62;0.00;0.00;0.62;;;;;21.20;1.00;;;;;;2268149;61;1051;-83
2022/08/06 03:30:17;35816.00;0.12;62.65;0.00;0.00;0.62;;;;;21.80;1.00;;;;;;2268194;61;1939;-83
2022/08/06 03:32:46;0.00;0.00;0.62;0.00;0.00;0.62;;;;;22.10;1.00;;;;;;2267935;61;1100;-84
2022/08/06 03:35:14;0.00;0.00;0.62;0.00;0.00;0.62;;;;;22.10;1.00;;;;;;2268304;61;1359;-84
2022/08/06 03:37:43;0.00;0.00;0.62;0.00;0.00;0.62;;;;;22.00;1.00;;;;;;2267944;61;1160;-84
2022/08/06 03:40:13;0.00;0.00;0.62;0.00;0.00;0.62;;;;;21.80;1.00;;;;;;2268073;61;1235;-83
2022/08/06 03:42:40;122586.00;0.41;212.54;0.00;0.00;0.62;;;;;21.50;1.00;;;;;;2268050;61;1109;-82
2022/08/06 03:45:08;0.00;0.00;0.62;0.00;0.00;0.62;;;;;21.20;1.00;;;;;;2268629;61;1276;-85
2022/08/06 03:47:42;0.00;0.00;0.62;0.00;0.00;0.62;;;;;21.30;1.00;;;;;;2268435;61;1148;-84
2022/08/06 03:50:13;0.00;0.00;0.62;0.00;0.00;0.62;;;;;21.20;1.00;;;;;;2268683;61;1927;-84
2022/08/06 03:52:43;102822.00;0.34;178.44;28830.00;0.10;50.56;;;;;21.30;1.00;;;;;;2267890;61;1155;-83
2022/08/06 03:55:16;0.00;0.00;0.62;0.00;0.00;0.62;;;;;21.20;1.00;;;;;;2268223;61;1403;-83
2022/08/06 03:57:48;0.00;0.00;0.62;0.00;0.00;0.62;;;;;21.20;1.00;;;;;;2268729;61;1096;-84
2022/08/06 04:00:18;154124.00;0.51;266.91;0.00;0.00;0.62;;;;;21.20;1.00;;;;;;2269309;61;1149;-84
2022/08/06 04:02:49;0.00;0.00;0.62;0.00;0.00;0.62;;;;;21.30;1.00;;;;;;2268356;61;1108;-85
2022/08/06 04:05:19;0.00;0.00;0.62;0.00;0.00;0.62;;;;;21.40;1.00;;;;;;2268779;61;1497;-84
2022/08/06 04:07:48;1099.00;0.00;2.52;0.00;0.00;0.62;;;;;21.40;1.00;;;;;;2267946;61;1508;-83
2022/08/06 04:10:18;0.00;0.00;0.62;0.00;0.00;0.62;;;;;21.40;1.00;;;;;;2268039;61;2002;-84
2022/08/06 04:12:46;0.00;0.00;0.62;0.00;0.00;0.62;;;;;21.40;1.00;;;;;;2268036;61;1544;-84
2022/08/06 04:15:14;0.00;0.00;0.62;0.00;0.00;0.62;;;;;21.30;1.00;;;;;;2268779;61;1289;-84
2022/08/06 04:17:46;0.00;0.00;0.62;0.00;0.00;0.62;;;;;21.30;1.00;;;;;;2270464;61;1192;-83
2022/08/06 04:20:19;0.00;0.00;0.62;0.00;0.00;0.62;;;;;21.20;1.00;;;;;;2271481;61;2467;-83
2022/08/06 04:22:46;0.00;0.00;0.62;0.00;0.00;0.62;;;;;21.00;1.00;;;;;;2270034;61;1065;-84
2022/08/06 04:25:13;0.00;0.00;0.62;0.00;0.00;0.62;;;;;21.40;1.00;;;;;;2268333;61;1382;-83
2022/08/06 04:27:43;0.00;0.00;0.62;0.00;0.00;0.62;;;;;21.50;1.00;;;;;;2271583;61;1074;-84
2022/08/06 04:30:12;28368.00;0.09;49.76;0.00;0.00;0.62;;;;;21.50;1.00;;;;;;2269289;61;2013;-85
2022/08/06 04:32:41;0.00;0.00;0.62;0.00;0.00;0.62;;;;;21.70;1.00;;;;;;2272107;61;948;-85
2022/08/06 04:35:10;108956.00;0.36;189.03;42185.00;0.14;73.67;;;;;21.80;1.00;;;;;;2270073;61;1289;-84
2022/08/06 04:37:39;0.00;0.00;0.62;0.00;0.00;0.62;;;;;21.70;1.00;;;;;;2267936;61;1097;-85
2022/08/06 04:40:08;0.00;0.00;0.62;0.00;0.00;0.62;;;;;21.60;1.00;;;;;;2267882;61;1221;-82
2022/08/06 04:42:35;0.00;0.00;0.62;0.00;0.00;0.62;;;;;21.40;1.00;;;;;;2268511;61;1179;-83
2022/08/06 04:45:03;0.00;0.00;0.62;0.00;0.00;0.62;;;;;21.10;1.00;;;;;;2268548;61;1350;-84
2022/08/06 04:47:32;0.00;0.00;0.62;0.00;0.00;0.62;;;;;21.10;1.00;;;;;;2268905;61;1171;-82
2022/08/06 04:49:59;209368.00;0.70;362.05;23887.00;0.08;42.00;;;;;20.90;1.00;;;;;;2269085;61;2026;-83
2022/08/06 04:52:28;86775.00;0.29;150.74;0.00;0.00;0.62;;;;;20.80;1.00;;;;;;2268521;61;1268;-84
2022/08/06 04:54:56;0.00;0.00;0.62;0.00;0.00;0.62;;;;;20.70;1.00;;;;;;2268079;61;1360;-83
2022/08/06 04:57:23;0.00;0.00;0.62;0.00;0.00;0.62;;;;;20.70;1.00;;;;;;2268486;61;1102;-83
2022/08/06 04:59:50;181775.00;0.61;314.55;47811.00;0.16;83.40;;;;;20.90;1.00;;;;;;2268372;61;1618;-84
2022/08/06 05:02:17;52994.00;0.18;92.36;0.00;0.00;0.62;;;;;21.10;1.00;;;;;;2268297;61;1147;-84
2022/08/06 05:04:45;33876.00;0.11;59.29;0.00;0.00;0.62;;;;;21.20;1.00;;;;;;2269019;61;1368;-85
2022/08/06 05:07:17;73756.00;0.25;128.25;0.00;0.00;0.62;;;;;21.00;1.00;;;;;;2269290;61;1197;-84
2022/08/06 05:09:44;48182.00;0.16;84.04;0.00;0.00;0.62;;;;;20.90;1.00;;;;;;2269265;61;2016;-83
2022/08/06 05:12:24;0.00;0.00;0.62;0.00;0.00;0.62;;;;;20.70;1.00;;;;;;2268373;61;2023;-84
2022/08/06 05:14:55;0.00;0.00;0.62;0.00;0.00;0.62;;;;;20.60;1.00;;;;;;2268598;61;1396;-84
2022/08/06 05:17:25;249782.00;0.83;431.58;84404.00;0.28;146.64;;;;;20.80;1.00;;;;;;2268778;61;1106;-83
2022/08/06 05:19:58;0.00;0.00;0.62;0.00;0.00;0.62;;;;;20.70;1.00;;;;;;2267995;61;1172;-83
2022/08/06 05:22:25;0.00;0.00;0.62;0.00;0.00;0.62;;;;;20.70;1.00;;;;;;2270049;61;1089;-84
2022/08/06 05:24:53;0.00;0.00;0.62;0.00;0.00;0.62;;;;;20.50;1.00;;;;;;2272523;61;1400;-83
2022/08/06 05:27:22;139673.00;0.47;242.01;28783.00;0.10;50.48;;;;;20.80;1.00;;;;;;2271401;61;1090;-82
2022/08/06 05:29:49;0.00;0.00;0.62;0.00;0.00;0.62;;;;;20.90;1.00;;;;;;2267171;61;2018;-84
2022/08/06 05:32:17;106518.00;0.36;184.82;0.00;0.00;0.62;;;;;20.90;1.00;;;;;;2267437;61;1239;-82
2022/08/06 05:34:47;0.00;0.00;0.62;0.00;0.00;0.62;;;;;20.90;1.00;;;;;;2267406;61;1346;-83
2022/08/06 05:37:14;0.00;0.00;0.62;0.00;0.00;0.62;;;;;20.90;1.00;;;;;;2267593;61;1118;-82
2022/08/06 05:39:40;173635.00;0.58;300.53;27196.00;0.09;47.73;;;;;20.80;1.00;;;;;;2267860;61;1102;-83
2022/08/06 05:42:07;0.00;0.00;0.62;0.00;0.00;0.62;;;;;20.90;1.00;;;;;;2267418;61;1211;-84
2022/08/06 05:44:36;199176.00;0.66;344.51;0.00;0.00;0.62;;;;;20.70;1.00;;;;;;2267864;61;1402;-84
2022/08/06 05:47:07;56307.00;0.19;98.09;0.00;0.00;0.62;;;;;20.80;1.00;;;;;;2267718;61;1155;-84
2022/08/06 05:49:40;0.00;0.00;0.62;0.00;0.00;0.62;;;;;20.70;1.00;;;;;;2267740;61;1020;-83
2022/08/06 05:52:14;0.00;0.00;0.62;0.00;0.00;0.62;;;;;20.80;1.00;;;;;;2267461;61;1206;-83
2022/08/06 05:54:47;7981.00;0.03;14.45;0.00;0.00;0.62;;;;;20.50;1.00;;;;;;2267804;61;1393;-83
2022/08/06 05:57:23;0.00;0.00;0.62;0.00;0.00;0.62;;;;;20.40;1.00;;;;;;2267736;61;1090;-84
2022/08/06 05:59:59;206704.00;0.69;357.46;0.00;0.00;0.62;;;;;20.60;1.00;;;;;;2267902;61;1759;-83
2022/08/06 06:02:29;0.00;0.00;0.62;0.00;0.00;0.62;;;;;20.90;1.00;;;;;;2268166;61;1176;-84
2022/08/06 06:04:56;0.00;0.00;0.62;0.00;0.00;0.62;;;;;20.90;1.00;;;;;;2267796;61;1370;-83
2022/08/06 06:07:24;0.00;0.00;0.62;0.00;0.00;0.62;;;;;20.70;1.00;;;;;;2267490;61;1088;-82
2022/08/06 06:09:52;0.00;0.00;0.62;0.00;0.00;0.62;;;;;20.40;1.00;;;;;;2267818;61;2001;-83
2022/08/06 06:12:21;0.00;0.00;0.62;0.00;0.00;0.62;;;;;20.40;1.00;;;;;;2267899;61;1117;-84
2022/08/06 06:14:52;0.00;0.00;0.62;0.00;0.00;0.62;;;;;20.40;1.00;;;;;;2270371;61;1289;-84
2022/08/06 06:17:46;69083.00;0.23;120.18;0.00;0.00;0.62;;;;;20.40;1.00;;;;;;2268135;61;1231;-83
2022/08/06 06:20:19;66920.00;0.22;116.44;0.00;0.00;0.62;;;;;20.50;1.00;;;;;;2267799;61;1105;-83
2022/08/06 06:22:56;39523.00;0.13;69.06;0.00;0.00;0.62;;;;;20.90;1.00;;;;;;2267883;61;1612;-84
2022/08/06 06:25:28;184158.00;0.61;318.65;0.00;0.00;0.62;;;;;20.90;1.00;;;;;;2267640;61;1498;-84
2022/08/06 06:28:01;25630.00;0.09;45.02;0.00;0.00;0.62;;;;;20.70;1.00;;;;;;2267815;61;1128;-84
2022/08/06 06:30:39;39351.00;0.13;68.77;0.00;0.00;0.62;;;;;20.90;1.00;;;;;;2267766;61;1931;-84
2022/08/06 06:33:15;112851.00;0.38;195.75;46105.00;0.15;80.45;;;;;21.00;1.00;;;;;;2268274;61;1080;-84
2022/08/06 06:35:51;0.00;0.00;0.62;0.00;0.00;0.62;;;;;21.50;1.00;;;;;;2268099;61;1432;-84
2022/08/06 06:38:38;140051.00;0.47;242.66;20910.00;0.07;36.85;;;;;21.30;1.00;;;;;;2268206;61;1158;-84
2022/08/06 06:41:15;0.00;0.00;0.62;0.00;0.00;0.62;;;;;21.30;1.00;;;;;;2271198;61;1242;-85
2022/08/06 06:43:49;94926.00;0.32;164.81;0.00;0.00;0.62;;;;;21.40;1.00;;;;;;2267755;61;1462;-83
2022/08/06 06:46:29;0.00;0.00;0.62;0.00;0.00;0.62;;;;;21.30;1.00;;;;;;2267557;61;1287;-83
2022/08/06 06:49:02;0.00;0.00;0.62;0.00;0.00;0.62;;;;;21.30;1.00;;;;;;2267592;61;1534;-84
2022/08/06 06:51:34;6134.00;0.02;11.25;0.00;0.00;0.62;;;;;21.30;1.00;;;;;;2266722;61;2087;-83
2022/08/06 06:54:01;226214.00;0.75;391.04;64038.00;0.21;111.46;;;;;21.80;1.00;;;;;;2267163;61;1321;-84
2022/08/06 06:56:34;22904.00;0.08;40.30;0.00;0.00;0.62;;;;;21.80;1.00;;;;;;2268128;61;1159;-84
2022/08/06 06:59:05;137444.00;0.46;238.16;69630.00;0.23;121.12;;;;;21.20;1.00;;;;;;2271728;61;1073;-85
2022/08/06 07:01:35;0.00;0.00;0.62;0.00;0.00;0.62;;;;;21.30;1.00;;;;;;2272342;61;982;-83
2022/08/06 07:04:07;0.00;0.00;0.62;0.00;0.00;0.62;;;;;21.40;1.00;;;;;;2268195;61;1312;-83
2022/08/06 07:06:36;0.00;0.00;0.62;0.00;0.00;0.62;;;;;21.20;1.00;;;;;;2267822;61;1252;-83
2022/08/06 07:09:04;64234.00;0.21;111.80;0.00;0.00;0.62;;;;;21.30;1.00;;;;;;2267478;61;1642;-82
2022/08/06 07:11:32;98098.00;0.33;170.29;31219.00;0.10;54.69;;;;;21.50;1.00;;;;;;2269539;61;2005;-85
2022/08/06 07:14:01;0.00;0.00;0.62;0.00;0.00;0.62;;;;;21.60;1.00;;;;;;2269912;61;1376;-84
2022/08/06 07:16:31;79437.00;0.26;138.06;4729.00;0.02;8.82;;;;;21.50;1.00;;;;;;2270001;61;1114;-84
2022/08/06 07:19:03;41330.00;0.14;72.19;0.00;0.00;0.62;;;;;21.60;1.00;;;;;;2270023;61;1061;-84
2022/08/06 07:21:31;0.00;0.00;0.62;0.00;0.00;0.62;;;;;22.10;1.00;;;;;;2269704;61;1579;-85
2022/08/06 07:23:59;37775.00;0.13;66.04;0.00;0.00;0.62;;;;;23.20;1.00;;;;;;2269545;61;1379;-83
2022/08/06 07:26:30;0.00;0.00;0.62;0.00;0.00;0.62;;;;;24.00;1.00;;;;;;2270146;61;1064;-84
2022/08/06 07:28:58;0.00;0.00;0.62;0.00;0.00;0.62;;;;;25.10;1.00;;;;;;2269762;61;1132;-85
2022/08/06 07:31:27;17445.00;0.06;30.85;0.00;0.00;0.62;;;;;24.80;1.00;;;;;;2272275;61;1913;-85
2022/08/06 07:33:56;0.00;0.00;0.62;0.00;0.00;0.62;;;;;24.50;1.00;;;;;;2269950;61;1391;-86
2022/08/06 07:36:28;16271.00;0.05;28.81;0.00;0.00;0.62;;;;;24.90;1.00;;;;;;2269814;61;1100;-86
2022/08/06 07:39:01;79415.00;0.26;138.03;0.00;0.00;0.62;;;;;24.90;1.00;;;;;;2270053;61;1160;-85
2022/08/06 07:41:31;0.00;0.00;0.62;0.00;0.00;0.62;;;;;24.70;1.00;;;;;;2269737;61;1132;-86
2022/08/06 07:44:00;0.00;0.00;0.62;0.00;0.00;0.62;;;;;24.90;1.00;;;;;;2270742;61;1249;-85
2022/08/06 07:46:32;88447.00;0.29;153.63;0.00;0.00;0.62;;;;;24.80;1.00;;;;;;2269821;61;1108;-84
2022/08/06 07:49:04;0.00;0.00;0.62;0.00;0.00;0.62;;;;;24.30;1.00;;;;;;2270392;61;1627;-84
2022/08/06 07:51:35;16564.00;0.06;29.32;0.00;0.00;0.62;;;;;24.00;1.00;;;;;;2269548;61;1997;-85
2022/08/06 07:54:04;206022.00;0.69;356.29;65942.00;0.22;114.75;;;;;23.80;1.00;;;;;;2270707;61;1283;-84
2022/08/06 07:56:32;111844.00;0.37;194.01;0.00;0.00;0.62;;;;;23.40;1.00;;;;;;2271299;61;1132;-84
2022/08/06 07:59:00;135068.00;0.45;234.07;68702.00;0.23;119.52;;;;;22.80;1.00;;;;;;2271085;61;1116;-85
2022/08/06 08:01:28;64434.00;0.21;112.14;0.00;0.00;0.62;;;;;22.50;1.00;;;;;;2269841;61;1136;-84
2022/08/06 08:06:42;126811.00;0.42;219.83;0.00;0.00;0.62;;;;;22.40;1.00;;;;;;2271192;61;716;-86
2022/08/06 08:09:13;35636.00;0.12;62.34;0.00;0.00;0.62;;;;;22.90;1.00;;;;;;2272884;61;1078;-86
2022/08/06 08:11:42;47214.00;0.16;82.37;0.00;0.00;0.62;;;;;23.00;1.00;;;;;;2271382;61;2002;-85
2022/08/06 08:14:11;87224.00;0.29;151.51;0.00;0.00;0.62;;;;;22.80;1.00;;;;;;2269931;61;1356;-85
2022/08/06 08:16:40;78539.00;0.26;136.51;0.00;0.00;0.62;;;;;23.00;1.00;;;;;;2270175;61;1095;-85
2022/08/06 08:19:22;5632.00;0.02;10.38;0.00;0.00;0.62;;;;;23.70;1.00;;;;;;2269197;61;1228;-85
2022/08/06 08:21:51;0.00;0.00;0.62;0.00;0.00;0.62;;;;;24.40;1.00;;;;;;2269900;61;1091;-85
2022/08/06 08:24:18;52384.00;0.17;91.31;0.00;0.00;0.62;;;;;25.00;1.00;;;;;;2269864;61;1371;-86
2022/08/06 08:26:45;0.00;0.00;0.62;0.00;0.00;0.62;;;;;24.90;1.00;;;;;;2269570;61;1183;-85
2022/08/06 08:29:12;0.00;0.00;0.62;0.00;0.00;0.62;;;;;24.50;1.00;;;;;;2269882;61;1132;-85
2022/08/06 08:31:39;114030.00;0.38;197.78;0.00;0.00;0.62;;;;;24.00;1.00;;;;;;2269413;61;2024;-85
2022/08/06 08:34:06;193730.00;0.65;335.13;0.00;0.00;0.62;;;;;23.70;1.00;;;;;;2269473;61;1266;-85
2022/08/06 08:36:33;0.00;0.00;0.62;0.00;0.00;0.62;;;;;23.60;1.00;;;;;;2269242;61;1050;-85
2022/08/06 08:39:01;44284.00;0.15;77.30;0.00;0.00;0.62;;;;;23.50;1.00;;;;;;2270300;61;1399;-84
2022/08/06 08:41:34;0.00;0.00;0.62;0.00;0.00;0.62;;;;;22.90;1.00;;;;;;2270054;61;1152;-85
2022/08/06 08:44:04;0.00;0.00;0.62;0.00;0.00;0.62;;;;;22.80;1.00;;;;;;2270459;61;1415;-85
2022/08/06 08:46:34;0.00;0.00;0.62;0.00;0.00;0.62;;;;;22.70;1.00;;;;;;2271302;61;1160;-86
2022/08/06 08:49:04;11823.00;0.04;21.11;0.00;0.00;0.62;;;;;23.00;1.00;;;;;;2272370;61;1125;-86
2022/08/06 08:51:34;0.00;0.00;0.62;0.00;0.00;0.62;;;;;23.40;1.00;;;;;;2271890;61;1986;-85
2022/08/06 08:54:06;365112.00;1.22;629.84;93665.00;0.31;162.64;;;;;24.00;1.00;;;;;;2271741;61;1635;-85
2022/08/06 08:56:33;59652.00;0.20;103.88;0.00;0.00;0.62;;;;;24.60;1.00;;;;;;2270786;61;1163;-86
2022/08/06 08:59:02;0.00;0.00;0.62;0.00;0.00;0.62;;;;;25.30;1.00;;;;;;2270971;61;1092;-85
2022/08/06 09:01:30;78382.00;0.26;136.24;0.00;0.00;0.62;;;;;25.00;1.00;;;;;;2271074;61;1172;-86
2022/08/06 09:03:58;26247.00;0.09;46.09;0.00;0.00;0.62;;;;;24.00;1.00;;;;;;2271484;61;1295;-84
2022/08/06 09:06:26;0.00;0.00;0.62;0.00;0.00;0.62;;;;;23.80;1.00;;;;;;2272627;61;1735;-85
2022/08/06 09:08:54;0.00;0.00;0.62;0.00;0.00;0.62;;;;;23.70;1.00;;;;;;2272383;61;1079;-86
2022/08/06 09:11:23;0.00;0.00;0.62;0.00;0.00;0.62;;;;;23.70;1.00;;;;;;2272643;61;1915;-86
2022/08/06 09:13:50;281209.00;0.94;485.62;144306.00;0.48;249.99;;;;;23.50;1.00;;;;;;2272265;61;1598;-85
2022/08/06 09:16:17;0.00;0.00;0.62;0.00;0.00;0.62;;;;;24.20;1.00;;;;;;2272412;61;1440;-85
2022/08/06 09:18:44;26465.00;0.09;46.46;0.00;0.00;0.62;;;;;23.80;1.00;;;;;;2272335;61;1116;-84
2022/08/06 09:21:12;0.00;0.00;0.62;0.00;0.00;0.62;;;;;23.20;1.00;;;;;;2272416;61;969;-86
2022/08/06 09:23:39;165947.00;0.55;287.28;0.00;0.00;0.62;;;;;23.40;1.00;;;;;;2272377;61;1679;-89
2022/08/06 09:26:07;206339.00;0.69;356.83;0.00;0.00;0.62;;;;;23.70;1.00;;;;;;2272682;61;944;-87
2022/08/06 09:28:38;18476.00;0.06;32.63;0.00;0.00;0.62;;;;;24.10;1.00;;;;;;2272357;61;2129;-85
2022/08/06 09:31:07;60922.00;0.20;106.07;0.00;0.00;0.62;;;;;24.20;1.00;;;;;;2272341;61;1978;-85
2022/08/06 09:33:37;228563.00;0.76;395.08;0.00;0.00;0.62;;;;;23.70;1.00;;;;;;2272125;61;1602;-86
2022/08/06 09:36:06;198611.00;0.66;343.53;41464.00;0.14;72.42;;;;;23.70;1.00;;;;;;2272412;61;1588;-86
2022/08/06 09:38:55;0.00;0.00;0.62;0.00;0.00;0.62;;;;;24.40;1.00;;;;;;2272403;61;1238;-86
2022/08/06 09:41:24;0.00;0.00;0.62;0.00;0.00;0.62;;;;;24.80;1.00;;;;;;2272413;61;1128;-85
2022/08/06 09:43:54;27041.00;0.09;47.46;0.00;0.00;0.62;;;;;25.00;1.00;;;;;;2272241;61;1360;-87
2022/08/06 09:46:38;0.00;0.00;0.62;0.00;0.00;0.62;;;;;25.50;1.00;;;;;;2272440;61;1849;-86
2022/08/06 09:49:06;0.00;0.00;0.62;0.00;0.00;0.62;;;;;25.10;1.00;;;;;;2272432;61;1184;-85
2022/08/06 09:51:34;155335.00;0.52;269.00;0.00;0.00;0.62;;;;;24.90;1.00;;;;;;2272512;61;1990;-87
2022/08/06 09:54:03;99030.00;0.33;171.90;0.00;0.00;0.62;;;;;25.10;1.00;;;;;;2271766;61;1878;-85
2022/08/06 09:56:30;220306.00;0.73;380.87;0.00;0.00;0.62;;;;;24.90;1.00;;;;;;2272385;61;1718;-83
2022/08/06 09:59:01;256230.00;0.85;442.67;0.00;0.00;0.62;;;;;25.50;1.00;;;;;;2272229;61;1140;-85
2022/08/06 10:01:30;251652.00;0.84;434.79;52771.00;0.18;91.98;;;;;25.50;1.00;;;;;;2272575;61;1065;-86
2022/08/06 10:03:58;0.00;0.00;0.62;0.00;0.00;0.62;;;;;25.10;1.00;;;;;;2272507;61;1292;-87
2022/08/06 10:06:26;150525.00;0.50;260.71;0.00;0.00;0.62;;;;;25.60;1.00;;;;;;2272569;61;1107;-88
2022/08/06 10:09:07;431589.00;1.44;744.12;33703.00;0.11;58.99;;;;;25.60;1.00;;;;;;2272565;61;1000;-86
2022/08/06 10:11:36;900595.00;3.00;1557.17;255936.00;0.85;442.16;;;;;25.80;1.00;;;;;;2272527;61;1920;-85
2022/08/06 10:14:05;382732.00;1.28;660.12;100591.00;0.34;174.59;;;;;26.40;1.00;;;;;;2272488;61;1301;-87
2022/08/06 10:16:33;1270178.00;4.23;2217.63;307177.00;1.02;530.26;;;;;26.50;1.00;;;;;;2272321;61;1695;-87
2022/08/06 10:19:04;304026.00;1.01;524.84;105811.00;0.35;183.60;;;;;26.60;1.00;;;;;;2272441;61;1697;-87
2022/08/06 10:21:35;280136.00;0.93;483.77;0.00;0.00;0.62;;;;;26.70;1.00;;;;;;2281997;56;3761;-86
2022/08/06 10:24:05;530334.00;1.77;914.07;61839.00;0.21;107.66;;;;;26.70;1.00;;;;;;2271332;61;1799;-84
2022/08/06 10:26:34;670861.00;2.24;1156.74;117320.00;0.39;203.46;;;;;25.80;1.00;;;;;;2270791;61;1037;-84
2022/08/06 10:29:05;925325.00;3.08;1600.64;272673.00;0.91;470.94;;;;;25.90;1.00;;;;;;2270774;61;1140;-84
2022/08/06 10:31:33;634532.00;2.12;1093.88;142028.00;0.47;246.07;;;;;26.10;1.00;;;;;;2270810;61;1932;-84
2022/08/06 10:34:07;0.00;0.00;0.62;0.00;0.00;0.62;;;;;26.40;1.00;;;;;;2270352;61;1513;-84
2022/08/06 10:36:37;229619.00;0.77;396.89;0.00;0.00;0.62;;;;;26.60;1.00;;;;;;2270552;61;1275;-84